map of BPI home
BPI - Airport
Location
City:  Big Piney, Wyoming, United States
Name:Miley Memorial Field
ICAO:KBPI
IATA:BPI
FAA LID:BPI

Details
Type:Airport (Airfield)
Use:Public/Civil
Latitude:4234'56"N (42.582222)
Longitude:11006'32"W (-110.108860)
Datum:WGS 1984
Elevation:6993 ft (2131 m)
Variation:10.91E (WMM2015v2 magnetic declination)
-0.09 annual change
Runways:2
Longest:6803 × 75 ft (2074 × 23 m), paved

Time
Time Zone:UTC-7 (DST-6)
Local Time:

Weather
METAR:KBPI 041353Z AUTO 15008KT 10SM CLR M06/M09 A2958 RMK AO2 SLP043 T10611089
TAF:KBPI 041136Z 0412/0512 18009G15KT P6SM SCT040 WS020/23040KT
FM041600 18007KT 4SM -SN SCT015 OVC030
FM042300 17006KT 1 1/2SM -SN OVC011
FM050600 18006KT 3SM -SN SCT012 OVC022

Related Locations
Nearby:
Farthest:RRG: 10813 mi / 17401 km
Plaine Corail [Sir Gatan Duval Airport (Plaine Corail Airport)], Rodrigues Island, MU

Find:

   beyond  
but within

Other Information
Maps:
NOTAMs:
Links:
Sources:

  
  • flag of United States
  • flag of Wyoming
  

Sectional Chart

Flight Planning
at skyvector.com

Satellite Image

Google Maps Satellite view

 

Copyright © 2004-2019 Karl L. Swartz. All rights reserved.
The Great Circle Mapper name and logo are trademarks of the Great Circle Mapper.
All other trademarks mentioned herein belong to their respective owners.
Please see credits for attibutions and further copyright information.

  Follow gcmap on Facebook Follow gcmap on Twitter GCmap on LinkedIn

hCard Microformat

Geo Microformat